Time;durP1;ratioP1;P1;durP2;ratioP2;P2;SDS_P1;SDS_P2;PMS_P1;PMS_P2;Temp;Humidity;BMP_temperature;BMP_pressure;BME280_temperature;BME280_humidity;BME280_pressure;Samples;Min_cycle;Max_cycle;Signal;HPM_P1;HPM_P2
2021/03/02 00:00:09;;;;;;;10.02;4.28;;;1.60;90.70;;;;;;4960964;28;20055;-82
2021/03/02 00:02:40;;;;;;;7.37;3.33;;;1.50;90.80;;;;;;4960520;28;20633;-83
2021/03/02 00:05:13;;;;;;;10.07;3.95;;;1.50;90.80;;;;;;4953434;28;20067;-83
2021/03/02 00:07:41;;;;;;;10.98;4.18;;;1.50;90.90;;;;;;4955333;28;20055;-82
2021/03/02 00:10:10;;;;;;;12.07;5.38;;;1.60;91.30;;;;;;4960609;28;20079;-82
2021/03/02 00:12:40;;;;;;;9.75;4.32;;;1.60;91.20;;;;;;4960529;28;20113;-82
2021/03/02 00:15:09;;;;;;;14.15;4.22;;;1.60;91.10;;;;;;4959627;28;20216;-81
2021/03/02 00:17:43;;;;;;;10.02;4.75;;;1.50;91.20;;;;;;4957987;28;20264;-84
2021/03/02 00:20:12;;;;;;;11.68;6.35;;;1.50;91.60;;;;;;4957878;28;20059;-85
2021/03/02 00:22:49;;;;;;;13.20;4.80;;;1.50;91.80;;;;;;4986460;28;20121;-83
2021/03/02 00:25:17;;;;;;;8.65;3.58;;;1.50;91.80;;;;;;4987886;28;20404;-82
2021/03/02 00:27:45;;;;;;;14.27;6.07;;;1.40;91.70;;;;;;4983110;28;20043;-81
2021/03/02 00:30:16;;;;;;;17.42;5.50;;;1.40;92.00;;;;;;4958243;28;20057;-82
2021/03/02 00:32:47;;;;;;;11.55;4.95;;;1.40;92.00;;;;;;4975564;28;20134;-82
2021/03/02 00:35:16;;;;;;;;;;;1.40;91.70;;;;;;4958470;28;20161;-82
2021/03/02 00:37:47;;;;;;;11.02;4.28;;;1.30;91.80;;;;;;4955868;28;20002;-83
2021/03/02 00:40:13;;;;;;;;;;;1.30;91.70;;;;;;4958443;28;20066;-85
2021/03/02 00:42:40;;;;;;;11.45;5.95;;;1.20;91.70;;;;;;4959144;28;20110;-82
2021/03/02 00:45:08;;;;;;;10.00;3.90;;;1.20;91.80;;;;;;4954856;28;20055;-83
2021/03/02 00:47:36;;;;;;;8.95;3.95;;;1.30;91.80;;;;;;4973259;28;20242;-82
2021/03/02 00:50:11;;;;;;;10.20;4.15;;;1.20;91.40;;;;;;4943374;28;20044;-83
2021/03/02 00:52:38;;;;;;;10.90;5.00;;;1.20;91.80;;;;;;4972808;28;20050;-82
2021/03/02 00:55:09;;;;;;;9.43;4.70;;;1.20;91.50;;;;;;4960378;28;20055;-81
2021/03/02 00:57:37;;;;;;;12.68;5.78;;;1.20;91.60;;;;;;4963234;28;20085;-81
2021/03/02 01:00:13;;;;;;;10.93;5.40;;;1.20;91.80;;;;;;4941160;28;20114;-80
2021/03/02 01:02:41;;;;;;;9.43;3.35;;;1.10;91.90;;;;;;4963393;28;20405;-81
2021/03/02 01:05:11;;;;;;;15.23;5.78;;;1.10;91.80;;;;;;4957464;28;20051;-84
2021/03/02 01:07:41;;;;;;;11.02;4.72;;;1.00;91.90;;;;;;4957059;28;20055;-80
2021/03/02 01:10:12;;;;;;;10.45;4.28;;;1.10;92.20;;;;;;4935016;28;22578;-84
2021/03/02 01:12:41;;;;;;;10.60;4.22;;;1.00;92.10;;;;;;4952501;28;20241;-84
2021/03/02 01:15:10;;;;;;;9.68;3.83;;;1.00;92.10;;;;;;4998968;28;20095;-81
2021/03/02 01:17:37;;;;;;;14.50;4.78;;;0.90;92.10;;;;;;4958315;28;20075;-79
2021/03/02 01:20:05;;;;;;;12.10;4.97;;;0.90;92.10;;;;;;5001236;28;20067;-80
2021/03/02 01:22:33;;;;;;;8.90;4.55;;;0.90;92.30;;;;;;4987749;28;20076;-82
2021/03/02 01:25:03;;;;;;;12.00;5.32;;;0.90;92.40;;;;;;4982330;28;20047;-80
2021/03/02 01:27:31;;;;;;;13.00;5.03;;;0.90;92.40;;;;;;4994439;28;20161;-85
2021/03/02 01:29:59;;;;;;;10.20;4.13;;;1.00;92.10;;;;;;4955864;28;20326;-85
2021/03/02 01:32:26;;;;;;;9.02;4.35;;;1.00;92.00;;;;;;4960209;28;20063;-86
2021/03/02 01:34:54;;;;;;;7.78;3.78;;;1.00;92.30;;;;;;4961434;28;20093;-84
2021/03/02 01:37:22;;;;;;;9.05;4.22;;;1.00;92.50;;;;;;4953972;28;20047;-82
2021/03/02 01:39:50;;;;;;;11.32;4.57;;;1.00;92.40;;;;;;4963093;28;20577;-82
2021/03/02 01:42:17;;;;;;;10.85;3.67;;;0.90;92.60;;;;;;4942392;28;20335;-82
2021/03/02 01:44:48;;;;;;;10.00;4.45;;;0.90;92.40;;;;;;4981098;28;20278;-81
2021/03/02 01:47:15;;;;;;;8.25;3.00;;;0.90;92.60;;;;;;4977724;28;20047;-81
2021/03/02 01:49:43;;;;;;;10.73;4.90;;;1.00;92.90;;;;;;4960883;28;20228;-81
2021/03/02 01:52:10;;;;;;;7.97;4.35;;;1.10;93.20;;;;;;4973119;28;20059;-83
2021/03/02 01:54:39;;;;;;;12.77;5.03;;;1.20;93.00;;;;;;4964601;28;20088;-83
2021/03/02 01:57:10;;;;;;;8.35;4.18;;;1.20;93.00;;;;;;4959289;28;20047;-82
2021/03/02 01:59:37;;;;;;;9.35;5.03;;;1.30;92.90;;;;;;4960857;28;20055;-81
2021/03/02 02:02:04;;;;;;;6.65;3.63;;;1.20;92.70;;;;;;4973884;28;20118;-82
2021/03/02 02:04:38;;;;;;;11.90;4.05;;;1.20;92.70;;;;;;4952254;28;20055;-82
2021/03/02 02:07:10;;;;;;;7.63;3.53;;;1.10;92.50;;;;;;4968362;28;21237;-81
2021/03/02 02:09:45;;;;;;;10.60;4.88;;;1.10;92.50;;;;;;4961144;28;20089;-82
2021/03/02 02:12:20;;;;;;;10.77;3.90;;;1.00;92.00;;;;;;4984137;28;20051;-82
2021/03/02 02:14:52;;;;;;;7.70;4.03;;;1.00;91.80;;;;;;4958006;28;20047;-81
2021/03/02 02:17:26;;;;;;;7.97;4.22;;;1.00;91.90;;;;;;4970802;28;20127;-82
2021/03/02 02:19:56;;;;;;;10.75;3.95;;;0.90;92.00;;;;;;4947101;28;20054;-85
2021/03/02 02:22:40;;;;;;;9.00;4.13;;;0.90;92.00;;;;;;4964073;28;20174;-82
2021/03/02 02:25:19;;;;;;;10.35;4.05;;;0.90;92.10;;;;;;4975048;28;20330;-81
2021/03/02 02:27:50;;;;;;;8.98;4.32;;;0.80;92.20;;;;;;4963248;28;20039;-83
2021/03/02 02:30:18;;;;;;;7.53;3.10;;;0.80;92.20;;;;;;4962971;28;20070;-83
2021/03/02 02:32:48;;;;;;;7.40;3.72;;;0.70;92.30;;;;;;4963325;28;20080;-83
2021/03/02 02:35:15;;;;;;;6.32;3.00;;;0.80;92.40;;;;;;4972494;28;20059;-86
2021/03/02 02:38:00;;;;;;;8.55;3.55;;;0.80;92.40;;;;;;4992220;28;20047;-83
2021/03/02 02:40:33;;;;;;;13.05;5.03;;;0.80;92.70;;;;;;4967046;28;20349;-85
2021/03/02 02:43:02;;;;;;;8.13;4.13;;;0.80;93.20;;;;;;4965460;28;20055;-82
2021/03/02 02:45:30;;;;;;;10.98;4.63;;;0.90;93.00;;;;;;4948482;28;20234;-83
2021/03/02 02:47:58;;;;;;;8.82;4.68;;;1.10;92.80;;;;;;4996437;28;20047;-84
2021/03/02 02:50:26;;;;;;;12.23;4.57;;;1.20;92.40;;;;;;4964629;28;20112;-84
2021/03/02 02:52:54;;;;;;;9.35;3.22;;;1.20;92.10;;;;;;4964885;28;20062;-85
2021/03/02 02:55:32;;;;;;;9.25;3.50;;;1.20;92.00;;;;;;4965941;28;20062;-82
2021/03/02 02:58:03;;;;;;;7.57;2.40;;;1.20;91.90;;;;;;4966635;28;20059;-82
2021/03/02 03:00:30;;;;;;;8.40;3.90;;;1.10;91.40;;;;;;4964520;28;20295;-81
2021/03/02 03:02:59;;;;;;;9.77;3.25;;;1.10;91.90;;;;;;4946225;28;20051;-84
2021/03/02 03:05:28;;;;;;;7.38;3.50;;;1.00;92.00;;;;;;4992469;28;20051;-81
2021/03/02 03:08:02;;;;;;;6.82;3.42;;;0.90;91.20;;;;;;4964614;28;20063;-82
2021/03/02 03:10:31;;;;;;;5.88;3.05;;;0.70;90.80;;;;;;4964230;28;20057;-85
2021/03/02 03:13:03;;;;;;;7.55;2.78;;;0.70;91.00;;;;;;4969794;28;20089;-84
2021/03/02 03:15:34;;;;;;;8.32;3.35;;;0.60;91.40;;;;;;4962321;28;20097;-85
2021/03/02 03:18:06;;;;;;;8.13;2.83;;;0.60;91.50;;;;;;4947610;28;20104;-84
2021/03/02 03:20:34;;;;;;;8.75;4.35;;;0.60;91.60;;;;;;4964055;28;20423;-85
2021/03/02 03:23:01;;;;;;;9.85;4.10;;;0.50;91.80;;;;;;4964041;28;20055;-83
2021/03/02 03:25:32;;;;;;;8.68;4.57;;;0.50;91.90;;;;;;4985778;28;20379;-86
2021/03/02 03:28:04;;;;;;;7.43;3.38;;;0.50;92.20;;;;;;4977482;28;20235;-83
2021/03/02 03:30:33;;;;;;;7.85;3.03;;;0.70;92.70;;;;;;4962863;28;20147;-83
2021/03/02 03:33:05;;;;;;;7.90;3.28;;;0.80;92.40;;;;;;4963061;28;20066;-83
2021/03/02 03:35:34;;;;;;;9.60;4.28;;;0.90;92.30;;;;;;4958015;28;20059;-83
2021/03/02 03:38:01;;;;;;;13.35;4.65;;;0.90;92.20;;;;;;4981883;28;20047;-84
2021/03/02 03:40:30;;;;;;;9.23;4.13;;;0.80;92.30;;;;;;4960724;28;20055;-84
2021/03/02 03:42:57;;;;;;;7.22;2.42;;;0.90;92.40;;;;;;4961793;28;20373;-84
2021/03/02 03:45:25;;;;;;;7.25;3.03;;;0.90;92.20;;;;;;4963579;28;20059;-87
2021/03/02 03:47:52;;;;;;;8.07;3.60;;;0.90;92.10;;;;;;4945792;28;20525;-83
2021/03/02 03:50:19;;;;;;;8.63;3.00;;;0.90;92.20;;;;;;4986002;28;20314;-82
2021/03/02 03:52:50;;;;;;;7.78;3.05;;;0.90;92.10;;;;;;4985505;28;20055;-84
2021/03/02 03:55:19;;;;;;;7.33;3.20;;;0.90;91.90;;;;;;4976233;28;20063;-83
2021/03/02 03:57:47;;;;;;;9.02;3.55;;;0.90;92.00;;;;;;4963811;28;20322;-82
2021/03/02 04:00:15;;;;;;;9.27;3.75;;;0.80;91.90;;;;;;4979737;28;20083;-85
2021/03/02 04:02:44;;;;;;;7.70;3.63;;;0.80;91.80;;;;;;4945389;28;20059;-83
2021/03/02 04:05:13;;;;;;;7.07;2.78;;;0.80;92.10;;;;;;4964938;28;20055;-83
2021/03/02 04:07:40;;;;;;;9.65;3.83;;;0.80;92.20;;;;;;4978871;28;20306;-86
2021/03/02 04:10:09;;;;;;;7.93;3.58;;;0.80;92.10;;;;;;4961085;28;20055;-84
2021/03/02 04:12:38;;;;;;;9.82;3.88;;;0.80;92.20;;;;;;4957177;28;20047;-84
2021/03/02 04:15:10;;;;;;;7.15;3.25;;;0.80;92.00;;;;;;4961285;28;20039;-81
2021/03/02 04:17:37;;;;;;;9.00;3.45;;;0.80;92.00;;;;;;4960707;28;20055;-85
2021/03/02 04:20:08;;;;;;;8.05;3.65;;;0.70;92.00;;;;;;4965376;28;21107;-84
2021/03/02 04:22:37;;;;;;;9.15;3.92;;;0.70;92.10;;;;;;4962516;28;20050;-82
2021/03/02 04:25:04;;;;;;;7.57;3.38;;;0.60;92.10;;;;;;4971977;28;20279;-81
2021/03/02 04:27:31;;;;;;;7.88;3.50;;;0.60;92.30;;;;;;4976429;28;20226;-84
2021/03/02 04:29:58;;;;;;;9.20;3.58;;;0.70;92.30;;;;;;4979426;28;20227;-84
2021/03/02 04:32:26;;;;;;;6.95;3.70;;;0.60;92.10;;;;;;4964981;28;20130;-84
2021/03/02 04:34:53;;;;;;;10.00;3.80;;;0.60;92.20;;;;;;4964908;28;20228;-85
2021/03/02 04:37:20;;;;;;;10.38;3.85;;;0.40;92.30;;;;;;4962496;28;20050;-85
2021/03/02 04:39:48;;;;;;;5.70;2.80;;;0.30;92.40;;;;;;4942903;28;20046;-86
2021/03/02 04:42:19;;;;;;;8.40;3.40;;;0.20;92.60;;;;;;4963661;28;20079;-83
2021/03/02 04:44:47;;;;;;;8.18;3.10;;;0.20;92.70;;;;;;4966039;28;20046;-85
2021/03/02 04:47:14;;;;;;;8.20;2.83;;;0.20;92.90;;;;;;4959252;28;20104;-86
2021/03/02 04:49:43;;;;;;;9.00;3.13;;;0.10;93.00;;;;;;5001821;28;20075;-84
2021/03/02 04:52:10;;;;;;;5.85;2.90;;;0.10;93.10;;;;;;4960676;28;20062;-84
2021/03/02 04:54:37;;;;;;;7.47;3.22;;;0.10;93.20;;;;;;4973992;28;20362;-85
2021/03/02 04:57:09;;;;;;;8.15;3.65;;;0.10;93.20;;;;;;4959184;28;20333;-81
2021/03/02 04:59:36;;;;;;;6.82;2.78;;;0.10;93.40;;;;;;4961400;28;20721;-82
2021/03/02 05:02:06;;;;;;;7.03;3.42;;;0.20;93.40;;;;;;4959012;28;20138;-82
2021/03/02 05:04:32;;;;;;;9.18;3.53;;;0.30;93.10;;;;;;4964480;28;20406;-81
2021/03/02 05:07:00;;;;;;;5.15;2.53;;;0.20;92.70;;;;;;5023922;28;20255;-83
2021/03/02 05:09:40;;;;;;;11.93;3.80;;;0.10;92.90;;;;;;4980206;28;20067;-81
2021/03/02 05:12:07;;;;;;;11.65;3.30;;;0.10;93.50;;;;;;4963578;28;20043;-84
2021/03/02 05:14:34;;;;;;;16.27;3.90;;;0.10;93.30;;;;;;4992874;28;20055;-83
2021/03/02 05:17:01;;;;;;;6.25;3.20;;;0.20;93.00;;;;;;4959413;28;20047;-81
2021/03/02 05:19:41;;;;;;;7.68;3.15;;;0.20;92.80;;;;;;4961146;28;20051;-84
2021/03/02 05:22:08;;;;;;;7.07;2.70;;;0.20;92.60;;;;;;4963794;28;20055;-81
2021/03/02 05:24:35;;;;;;;6.35;2.85;;;0.20;92.60;;;;;;4961303;28;20075;-81
2021/03/02 05:27:06;;;;;;;9.05;3.88;;;0.30;92.50;;;;;;5042226;28;20055;-81
2021/03/02 05:29:33;;;;;;;5.65;3.17;;;0.20;92.40;;;;;;4971082;28;20066;-83
2021/03/02 05:32:00;;;;;;;7.57;3.33;;;0.20;92.40;;;;;;4962077;28;20047;-85
2021/03/02 05:34:31;;;;;;;5.18;2.78;;;0.20;92.50;;;;;;4944207;28;20055;-83
2021/03/02 05:36:58;;;;;;;9.32;3.05;;;0.10;92.60;;;;;;4958231;28;20051;-84
2021/03/02 05:39:25;;;;;;;7.53;3.35;;;0.10;92.60;;;;;;4970726;28;20296;-81
2021/03/02 05:41:54;;;;;;;7.68;3.28;;;0.10;92.70;;;;;;4955991;28;20078;-81
2021/03/02 05:44:21;;;;;;;7.03;2.95;;;0.10;92.80;;;;;;4975210;28;20081;-82
2021/03/02 05:46:48;;;;;;;6.57;3.65;;;0.10;92.80;;;;;;4986195;28;20054;-82
2021/03/02 05:49:15;;;;;;;8.20;3.83;;;0.10;92.80;;;;;;4959051;28;20363;-85
2021/03/02 05:51:44;;;;;;;5.07;2.45;;;0.00;92.70;;;;;;4965873;28;20054;-81
2021/03/02 05:54:11;;;;;;;8.90;3.35;;;0.00;92.80;;;;;;4961163;28;20338;-81
2021/03/02 05:56:39;;;;;;;4.70;2.28;;;0.00;93.20;;;;;;4983922;28;20055;-84
2021/03/02 05:59:06;;;;;;;8.32;4.20;;;0.00;93.20;;;;;;4947457;28;20085;-81
2021/03/02 06:01:34;;;;;;;7.55;2.72;;;0.00;93.10;;;;;;4966470;28;20274;-81
2021/03/02 06:04:02;;;;;;;7.68;3.58;;;0.00;93.30;;;;;;4961508;28;20078;-85
2021/03/02 06:06:30;;;;;;;6.75;2.63;;;0.00;93.30;;;;;;4962363;28;20063;-80
2021/03/02 06:08:58;;;;;;;8.63;2.92;;;-3276.70;93.40;;;;;;4963856;28;20566;-81
2021/03/02 06:11:28;;;;;;;8.68;3.65;;;-3276.70;93.40;;;;;;4962266;28;20242;-80
2021/03/02 06:13:56;;;;;;;12.23;3.47;;;0.00;93.50;;;;;;4966999;28;20051;-85
2021/03/02 06:16:23;;;;;;;6.40;2.60;;;0.00;93.20;;;;;;4967403;28;20087;-85
2021/03/02 06:18:52;;;;;;;9.60;3.47;;;0.00;93.10;;;;;;4966751;28;20366;-82
2021/03/02 06:21:20;;;;;;;6.05;3.00;;;0.00;93.10;;;;;;4957293;28;20070;-83
2021/03/02 06:23:52;;;;;;;9.75;3.10;;;0.00;93.10;;;;;;4980800;28;20230;-82
2021/03/02 06:26:27;;;;;;;9.93;2.70;;;0.00;93.00;;;;;;4985524;28;20055;-83
2021/03/02 06:28:56;;;;;;;8.07;3.30;;;0.00;92.90;;;;;;4966753;28;20054;-84
2021/03/02 06:31:39;;;;;;;5.93;3.47;;;0.00;93.00;;;;;;4966783;28;20055;-83
2021/03/02 06:34:10;;;;;;;7.35;3.28;;;0.00;92.70;;;;;;4979174;28;20051;-82
2021/03/02 06:36:39;;;;;;;13.60;4.15;;;0.10;92.50;;;;;;4970599;28;20093;-79
2021/03/02 06:39:28;;;;;;;8.55;4.35;;;0.10;92.20;;;;;;4977795;28;20278;-82
2021/03/02 06:42:10;;;;;;;8.93;3.58;;;0.10;92.20;;;;;;4967603;28;20066;-82
2021/03/02 06:44:38;;;;;;;8.57;3.08;;;0.10;92.20;;;;;;4962574;28;20047;-85
2021/03/02 06:47:06;;;;;;;6.20;3.95;;;0.10;92.10;;;;;;4963483;28;20051;-82
2021/03/02 06:49:42;;;;;;;7.93;3.05;;;0.20;92.00;;;;;;4963240;28;20051;-82
2021/03/02 06:52:14;;;;;;;7.75;3.80;;;0.10;92.10;;;;;;4973546;28;20128;-82
2021/03/02 06:54:41;;;;;;;7.15;3.60;;;0.10;92.10;;;;;;5045400;28;20097;-83
2021/03/02 06:57:08;;;;;;;8.60;3.45;;;0.20;92.10;;;;;;4948309;28;20278;-84
2021/03/02 06:59:35;;;;;;;5.50;2.72;;;0.20;92.20;;;;;;4961278;28;20092;-85
2021/03/02 07:02:05;;;;;;;6.97;3.10;;;0.20;92.20;;;;;;4965502;28;20060;-82
2021/03/02 07:04:32;;;;;;;7.90;3.25;;;0.20;92.10;;;;;;4961676;28;20335;-83
2021/03/02 07:07:01;;;;;;;7.22;3.67;;;0.20;92.20;;;;;;4945932;28;20326;-83
2021/03/02 07:09:29;;;;;;;5.95;2.75;;;0.30;92.20;;;;;;4964598;28;20051;-83
2021/03/02 07:11:57;;;;;;;6.40;2.78;;;0.30;92.00;;;;;;4962529;28;20084;-83
2021/03/02 07:14:26;;;;;;;8.88;3.80;;;0.40;91.90;;;;;;4985098;28;20047;-82
2021/03/02 07:16:56;;;;;;;8.77;2.95;;;0.50;91.80;;;;;;4963153;28;20259;-81
2021/03/02 07:19:23;;;;;;;7.97;3.17;;;0.60;91.60;;;;;;4983097;28;20053;-81
2021/03/02 07:21:54;;;;;;;6.68;3.38;;;0.70;91.40;;;;;;4959878;28;20377;-80
2021/03/02 07:24:26;;;;;;;9.02;3.42;;;0.70;91.30;;;;;;4960631;28;20601;-81
2021/03/02 07:26:55;;;;;;;9.65;4.65;;;0.80;91.20;;;;;;4962869;28;20051;-82
2021/03/02 07:29:22;;;;;;;9.60;2.75;;;0.90;91.10;;;;;;4984225;28;20444;-81
2021/03/02 07:31:51;;;;;;;7.35;3.53;;;0.90;91.00;;;;;;4961513;28;20626;-81
2021/03/02 07:34:17;;;;;;;6.97;3.58;;;0.90;91.00;;;;;;4961314;28;20085;-81
2021/03/02 07:36:45;;;;;;;6.25;3.65;;;1.00;90.90;;;;;;4957409;28;20051;-84
2021/03/02 07:39:17;;;;;;;6.25;2.97;;;1.10;91.00;;;;;;4981400;28;20055;-83
2021/03/02 07:41:46;;;;;;;6.40;3.28;;;1.20;90.90;;;;;;4961507;28;20051;-82
2021/03/02 07:44:13;;;;;;;7.78;2.83;;;1.20;90.90;;;;;;4957645;28;20102;-83
2021/03/02 07:46:46;;;;;;;7.93;3.88;;;1.30;90.70;;;;;;4962854;28;20059;-83
2021/03/02 07:49:44;;;;;;;7.55;3.08;;;1.30;90.60;;;;;;4961361;28;20067;-82
2021/03/02 07:52:21;;;;;;;7.30;3.60;;;1.40;90.30;;;;;;4960809;28;20062;-81
2021/03/02 07:55:18;;;;;;;7.25;3.78;;;1.60;90.00;;;;;;4967031;28;20058;-82
2021/03/02 07:58:09;;;;;;;7.90;3.28;;;1.70;89.70;;;;;;4955937;28;20051;-84
2021/03/02 08:00:36;;;;;;;;;;;1.70;89.70;;;;;;4963077;28;20480;-84
2021/03/02 08:03:25;;;;;;;6.20;3.00;;;1.80;89.70;;;;;;4976771;28;20011;-83
2021/03/02 08:06:02;;;;;;;6.90;3.00;;;1.80;89.60;;;;;;4952696;28;20055;-80
2021/03/02 08:08:32;;;;;;;6.65;3.13;;;1.90;89.50;;;;;;4965668;28;20067;-82
2021/03/02 08:11:01;;;;;;;4.80;2.78;;;2.10;89.20;;;;;;4964541;28;20297;-82
2021/03/02 08:13:35;;;;;;;6.20;2.83;;;2.20;89.00;;;;;;4963113;28;20061;-81
2021/03/02 08:16:03;;;;;;;7.70;2.70;;;2.30;88.70;;;;;;4963578;28;20058;-82
2021/03/02 08:18:32;;;;;;;8.85;3.67;;;2.40;88.60;;;;;;4976059;28;20172;-80
2021/03/02 08:21:12;;;;;;;7.68;2.85;;;2.50;88.50;;;;;;4985648;28;20126;-81
2021/03/02 08:23:57;;;;;;;7.38;3.17;;;2.70;88.00;;;;;;4961122;28;20066;-85
2021/03/02 08:26:32;;;;;;;6.68;3.30;;;2.90;87.60;;;;;;4982019;28;20055;-82
2021/03/02 08:29:12;;;;;;;6.97;2.67;;;3.00;87.10;;;;;;4963825;28;20055;-81
2021/03/02 08:31:41;;;;;;;8.73;3.22;;;3.20;86.90;;;;;;4885960;28;21695;-84
2021/03/02 08:34:10;;;;;;;8.27;3.58;;;3.30;86.40;;;;;;339877;28;10022761;-81
2021/03/02 08:36:41;;;;;;;7.93;2.53;;;3.50;86.30;;;;;;4977095;28;20054;-82
2021/03/02 08:39:09;;;;;;;8.47;3.57;;;3.60;85.60;;;;;;4971903;28;20055;-80
2021/03/02 08:41:38;;;;;;;7.38;2.97;;;3.70;85.00;;;;;;4966547;28;20346;-81
2021/03/02 08:44:05;;;;;;;6.38;3.22;;;3.80;84.70;;;;;;4979785;28;20066;-81
2021/03/02 08:46:34;;;;;;;6.80;2.55;;;4.00;84.30;;;;;;4945555;28;20050;-82
2021/03/02 08:49:09;;;;;;;7.03;2.85;;;4.20;83.80;;;;;;4992377;28;20062;-80
2021/03/02 08:51:37;;;;;;;5.95;2.85;;;4.30;83.00;;;;;;4963422;28;20055;-81
2021/03/02 08:54:04;;;;;;;7.10;3.53;;;4.40;82.30;;;;;;4961430;28;20051;-84
2021/03/02 08:56:31;;;;;;;7.55;2.88;;;4.60;81.80;;;;;;4974279;28;20165;-83
2021/03/02 08:59:05;;;;;;;5.03;2.50;;;4.70;81.50;;;;;;4976065;28;20078;-83
2021/03/02 09:01:37;;;;;;;6.20;2.42;;;4.90;81.00;;;;;;4962794;28;20069;-83
2021/03/02 09:04:11;;;;;;;6.00;2.75;;;5.20;80.60;;;;;;4960127;28;20090;-82
2021/03/02 09:06:39;;;;;;;6.05;2.53;;;5.30;80.00;;;;;;4957780;28;20055;-82
2021/03/02 09:09:08;;;;;;;7.78;2.95;;;5.40;79.80;;;;;;4960504;28;20289;-81
2021/03/02 09:11:36;;;;;;;5.72;2.42;;;5.70;79.60;;;;;;4977792;28;20075;-82
2021/03/02 09:14:07;;;;;;;6.57;3.28;;;5.90;79.20;;;;;;4957909;28;20080;-80
2021/03/02 09:16:37;;;;;;;6.50;2.75;;;6.10;78.30;;;;;;4965393;28;20123;-81
2021/03/02 09:19:26;;;;;;;5.95;2.83;;;6.20;77.70;;;;;;4944390;28;20096;-81
2021/03/02 09:22:05;;;;;;;9.75;3.17;;;6.50;77.00;;;;;;4984904;28;20054;-82
2021/03/02 09:24:36;;;;;;;7.45;3.60;;;7.00;75.40;;;;;;4963726;28;20057;-80
2021/03/02 09:27:06;;;;;;;7.22;3.50;;;7.40;74.80;;;;;;4961248;28;20069;-80
2021/03/02 09:29:35;;;;;;;8.50;3.47;;;7.90;71.40;;;;;;4958850;28;20230;-82
2021/03/02 09:32:05;;;;;;;9.25;3.38;;;8.50;69.90;;;;;;4979117;28;20063;-81
2021/03/02 09:34:34;;;;;;;9.85;3.83;;;9.00;67.50;;;;;;4958043;28;20055;-81
2021/03/02 09:37:06;;;;;;;6.15;3.15;;;9.50;65.50;;;;;;4956008;28;20137;-81
2021/03/02 09:39:37;;;;;;;9.32;4.07;;;10.20;63.70;;;;;;4962640;28;20126;-82
2021/03/02 09:42:16;;;;;;;7.40;2.78;;;10.90;60.70;;;;;;4958057;28;20287;-82
2021/03/02 09:44:48;;;;;;;9.35;3.80;;;11.60;57.80;;;;;;4956868;28;20119;-81
2021/03/02 09:47:26;;;;;;;10.18;3.38;;;12.20;51.30;;;;;;4981761;28;20055;-82
2021/03/02 09:49:57;;;;;;;7.38;3.20;;;12.90;48.80;;;;;;4942443;28;20051;-81
2021/03/02 09:52:30;;;;;;;9.25;3.70;;;13.60;46.30;;;;;;4959535;28;20108;-83
2021/03/02 09:55:32;;;;;;;8.93;3.20;;;14.40;45.60;;;;;;4963021;28;20229;-81
2021/03/02 09:58:08;;;;;;;8.63;3.70;;;14.50;42.30;;;;;;4960315;28;20367;-80
2021/03/02 10:00:41;;;;;;;7.03;3.05;;;14.60;41.70;;;;;;4977469;28;20615;-82
2021/03/02 10:03:14;;;;;;;8.13;3.95;;;15.30;41.10;;;;;;4959259;28;20281;-81
2021/03/02 10:05:43;;;;;;;12.93;4.05;;;15.40;39.50;;;;;;4974615;28;20054;-81
2021/03/02 10:08:25;;;;;;;9.80;3.42;;;15.10;40.00;;;;;;4953603;28;20054;-80
2021/03/02 10:10:54;;;;;;;9.43;3.42;;;15.60;39.50;;;;;;4958628;28;20059;-80
2021/03/02 10:13:29;;;;;;;8.38;3.28;;;16.50;37.80;;;;;;4960239;28;20122;-81
2021/03/02 10:16:17;;;;;;;10.82;4.57;;;16.80;37.30;;;;;;4972754;28;20353;-80
2021/03/02 10:18:50;;;;;;;11.27;3.30;;;16.70;36.50;;;;;;4980534;28;20384;-80
2021/03/02 10:21:18;;;;;;;9.57;3.30;;;17.00;35.80;;;;;;4958347;28;20305;-80
2021/03/02 10:23:46;;;;;;;10.52;3.63;;;17.20;35.20;;;;;;4959242;28;20059;-83
2021/03/02 10:26:19;;;;;;;9.68;3.63;;;17.60;35.20;;;;;;5012350;28;20055;-80
2021/03/02 10:28:46;;;;;;;11.05;4.35;;;17.70;34.50;;;;;;4960416;28;20055;-80
2021/03/02 10:31:12;;;;;;;9.55;4.00;;;18.00;34.00;;;;;;4963295;28;20146;-82
2021/03/02 10:33:44;;;;;;;9.85;3.67;;;18.00;33.40;;;;;;4962098;28;20055;-82
2021/03/02 10:36:24;;;;;;;8.82;3.67;;;18.30;33.50;;;;;;4977830;28;20558;-80
2021/03/02 10:38:52;;;;;;;13.47;3.47;;;19.30;32.30;;;;;;4981857;28;20059;-82
2021/03/02 10:41:20;;;;;;;8.25;3.85;;;18.90;31.90;;;;;;4961807;28;20067;-81
2021/03/02 10:43:48;;;;;;;8.23;3.08;;;19.20;31.40;;;;;;4986372;28;20041;-81
2021/03/02 10:46:16;;;;;;;11.13;3.60;;;19.30;31.30;;;;;;4981527;28;20061;-82
2021/03/02 10:48:44;;;;;;;12.05;3.20;;;20.20;30.30;;;;;;4982255;28;20063;-83
2021/03/02 10:51:11;;;;;;;7.13;3.20;;;21.00;29.60;;;;;;4961865;28;20048;-80
2021/03/02 10:53:38;;;;;;;9.90;3.47;;;21.50;28.10;;;;;;4960156;28;20128;-81
2021/03/02 10:56:12;;;;;;;6.88;2.90;;;21.70;28.10;;;;;;4991057;28;20063;-82
2021/03/02 10:58:39;;;;;;;10.20;3.25;;;22.10;27.10;;;;;;4958643;28;20055;-81
2021/03/02 11:01:06;;;;;;;8.00;3.58;;;21.80;27.30;;;;;;4976311;28;20351;-80
2021/03/02 11:03:33;;;;;;;8.40;3.22;;;21.50;27.70;;;;;;4965041;28;20070;-81
2021/03/02 11:06:04;;;;;;;11.45;3.67;;;21.40;28.70;;;;;;4972945;28;20055;-82
2021/03/02 11:08:36;;;;;;;7.05;3.45;;;22.10;27.40;;;;;;4973936;28;20051;-82
2021/03/02 11:11:05;;;;;;;6.68;3.08;;;22.30;27.20;;;;;;4941235;28;20116;-83
2021/03/02 11:13:32;;;;;;;9.23;4.22;;;22.50;27.40;;;;;;4959066;28;20051;-82
2021/03/02 11:15:59;;;;;;;9.02;2.97;;;23.20;25.60;;;;;;5041146;28;20115;-81
2021/03/02 11:18:25;;;;;;;8.45;3.63;;;23.60;25.60;;;;;;4958968;28;20070;-83
2021/03/02 11:20:52;;;;;;;10.90;4.07;;;23.40;25.40;;;;;;4956916;28;20051;-82
2021/03/02 11:23:19;;;;;;;8.02;2.88;;;23.50;25.60;;;;;;4961066;28;20043;-83
2021/03/02 11:25:46;;;;;;;7.90;3.70;;;23.90;25.40;;;;;;4986300;28;20055;-82
2021/03/02 11:28:15;;;;;;;9.27;3.70;;;23.20;25.40;;;;;;4973539;28;20554;-81
2021/03/02 11:30:43;;;;;;;7.35;3.55;;;23.90;24.80;;;;;;4960269;28;20377;-82
2021/03/02 11:33:09;;;;;;;8.02;3.53;;;24.90;23.60;;;;;;4983202;28;20082;-83
2021/03/02 11:35:37;;;;;;;10.13;3.42;;;25.60;22.70;;;;;;5025731;28;20062;-82
2021/03/02 11:38:04;;;;;;;10.65;3.83;;;24.60;23.40;;;;;;4977756;28;20059;-82
2021/03/02 11:40:31;;;;;;;8.35;3.50;;;24.30;24.30;;;;;;4959501;28;20078;-81
2021/03/02 11:42:59;;;;;;;6.53;3.00;;;24.50;23.80;;;;;;4959639;28;20059;-81
2021/03/02 11:45:29;;;;;;;7.38;3.50;;;24.30;24.10;;;;;;4984679;28;20043;-80
2021/03/02 11:47:56;;;;;;;7.47;3.60;;;24.20;24.00;;;;;;5004782;28;20051;-83
2021/03/02 11:50:24;;;;;;;7.18;3.30;;;24.10;24.00;;;;;;4999214;28;20058;-81
2021/03/02 11:52:51;;;;;;;8.05;3.10;;;24.20;24.00;;;;;;4957686;28;20070;-82
2021/03/02 11:55:19;;;;;;;6.78;3.38;;;26.00;22.40;;;;;;4971763;28;20065;-83
2021/03/02 11:57:46;;;;;;;8.80;3.38;;;25.90;22.10;;;;;;4957502;28;20067;-83
2021/03/02 12:00:16;;;;;;;8.48;3.67;;;26.00;22.30;;;;;;4959243;28;20085;-82
2021/03/02 12:02:44;;;;;;;;;;;25.60;22.70;;;;;;4965279;28;20055;-83
2021/03/02 12:05:12;;;;;;;7.28;3.35;;;26.00;21.80;;;;;;5038290;28;19968;-82
2021/03/02 12:07:39;;;;;;;7.75;3.72;;;26.20;21.80;;;;;;4967924;28;20346;-82
2021/03/02 12:10:09;;;;;;;6.85;3.30;;;25.80;22.30;;;;;;4961375;28;20047;-82
2021/03/02 12:12:36;;;;;;;8.85;3.92;;;26.30;21.00;;;;;;4992955;28;20138;-81
2021/03/02 12:15:07;;;;;;;10.43;4.13;;;26.50;21.30;;;;;;4959179;28;20346;-82
2021/03/02 12:17:34;;;;;;;7.47;3.20;;;27.10;21.40;;;;;;4940982;28;20084;-81
2021/03/02 12:20:02;;;;;;;5.78;2.85;;;27.00;21.20;;;;;;4983428;28;20053;-81
2021/03/02 12:22:29;;;;;;;11.65;3.60;;;27.00;20.90;;;;;;5005036;28;20351;-81
2021/03/02 12:24:56;;;;;;;8.02;3.00;;;27.30;20.30;;;;;;4962035;28;20074;-82
2021/03/02 12:27:22;;;;;;;6.63;2.95;;;26.70;20.70;;;;;;4959370;28;20357;-81
2021/03/02 12:29:49;;;;;;;6.68;3.22;;;26.70;21.00;;;;;;4977383;28;20247;-81
2021/03/02 12:32:17;;;;;;;7.65;2.97;;;27.20;20.80;;;;;;4968252;28;20055;-81
2021/03/02 12:34:45;;;;;;;6.75;3.30;;;26.40;21.30;;;;;;4991504;28;20122;-82
2021/03/02 12:37:13;;;;;;;6.43;2.75;;;26.70;21.20;;;;;;4959496;28;20066;-82
2021/03/02 12:39:39;;;;;;;6.65;3.05;;;26.40;20.70;;;;;;4959764;28;20055;-83
2021/03/02 12:42:07;;;;;;;6.05;2.63;;;26.30;21.40;;;;;;4959917;28;20050;-82
2021/03/02 12:44:35;;;;;;;6.20;2.97;;;26.50;21.00;;;;;;4957162;28;20051;-83
2021/03/02 12:47:06;;;;;;;5.68;2.65;;;26.40;20.90;;;;;;4987049;28;20106;-80
2021/03/02 12:49:35;;;;;;;5.78;3.08;;;27.10;20.60;;;;;;4978063;28;20075;-80
2021/03/02 12:52:03;;;;;;;5.57;2.65;;;26.90;20.60;;;;;;4973298;28;20064;-81
2021/03/02 12:54:31;;;;;;;6.00;2.50;;;27.20;20.30;;;;;;4957796;28;20055;-80
2021/03/02 12:56:58;;;;;;;6.68;2.63;;;27.60;19.90;;;;;;4962426;28;20062;-78
2021/03/02 12:59:26;;;;;;;8.05;3.72;;;27.60;19.70;;;;;;4957321;28;20066;-80
2021/03/02 13:01:55;;;;;;;6.23;2.67;;;27.60;19.70;;;;;;4965161;28;20061;-79
2021/03/02 13:04:23;;;;;;;5.57;2.83;;;27.30;20.30;;;;;;4959806;28;20082;-80
2021/03/02 13:06:50;;;;;;;8.07;3.10;;;27.80;19.30;;;;;;4973939;28;20074;-79